Terminal Aerodrome Forecast
Issued by NWS Quad Cities IA IL

Home | Current Version | Previous Version | Text Only | Print | Product List | Glossary On
Versions: 1 2 3 4 5 6 7 8 9 10 11 12 13 14 15 16 17 18 19
000
FTUS43 KDVN 272300
TAFMLI
TAF
KMLI 272321Z 2800/2824 06005KT P6SM SCT250
     FM280800 09004KT P6SM VCSH SCT015 BKN040 OVC070
     FM281100 11005KT 5SM TSRA BR BKN025CB OVC030
     FM281500 13008KT P6SM VCTS SCT025 BKN040CB=

USA.gov is the U.S. government's official web portal to all federal, state and local government web resources and services.